Time;durP1;ratioP1;P1;durP2;ratioP2;P2;SDS_P1;SDS_P2;PMS_P1;PMS_P2;Temp;Humidity;BMP_temperature;BMP_pressure;BME280_temperature;BME280_humidity;BME280_pressure;Samples;Min_cycle;Max_cycle;Signal;HPM_P1;HPM_P2
2022/09/25 00:03:27;;;;;;;7.37;4.75;;;17.30;78.80;;;;;;10871624;32;20031;-69
2022/09/25 00:09:29;;;;;;;4.97;3.42;;;17.30;78.70;;;;;;10871221;32;20070;-69
2022/09/25 00:15:31;;;;;;;7.40;4.75;;;17.30;78.70;;;;;;10871004;32;20019;-69
2022/09/25 00:21:34;;;;;;;5.53;3.95;;;17.30;78.80;;;;;;10870034;32;20020;-69
2022/09/25 00:27:36;;;;;;;5.93;4.32;;;17.30;78.80;;;;;;10870581;32;20027;-69
2022/09/25 00:33:38;;;;;;;13.50;5.45;;;17.30;78.80;;;;;;10870492;32;20024;-68
2022/09/25 00:39:40;;;;;;;5.40;3.70;;;17.30;79.00;;;;;;10856842;32;20020;-68
2022/09/25 00:45:43;;;;;;;8.00;4.35;;;17.20;79.20;;;;;;10869937;32;20024;-69
2022/09/25 00:51:52;;;;;;;6.35;4.20;;;17.20;79.30;;;;;;10856309;32;20031;-69
2022/09/25 00:57:56;;;;;;;5.25;3.78;;;17.20;79.30;;;;;;10869583;32;20016;-70
2022/09/25 01:03:59;;;;;;;6.00;3.72;;;17.20;79.30;;;;;;10869235;32;20054;-70
2022/09/25 01:10:08;;;;;;;7.18;4.68;;;17.20;79.40;;;;;;10868746;32;20336;-70
2022/09/25 01:16:20;;;;;;;5.70;4.65;;;17.10;79.70;;;;;;10866998;32;20019;-69
2022/09/25 01:22:40;;;;;;;9.13;7.25;;;17.00;80.00;;;;;;10866428;32;20047;-69
2022/09/25 01:29:01;;;;;;;8.95;7.22;;;16.90;80.30;;;;;;10865910;32;20027;-69
2022/09/25 01:35:36;;;;;;;5.55;3.85;;;16.80;80.80;;;;;;10868081;32;20019;-69
2022/09/25 01:41:55;;;;;;;6.12;3.92;;;16.80;80.90;;;;;;10861751;32;20088;-69
2022/09/25 01:48:00;;;;;;;6.07;4.43;;;16.90;80.60;;;;;;10867635;32;20027;-69
2022/09/25 01:54:13;;;;;;;4.37;2.60;;;17.00;80.50;;;;;;10867228;32;20024;-69
2022/09/25 02:00:20;;;;;;;6.80;3.15;;;17.00;80.40;;;;;;10867581;32;20023;-69
2022/09/25 02:06:32;;;;;;;4.32;3.03;;;17.00;80.20;;;;;;10867270;32;20016;-69
2022/09/25 02:12:42;;;;;;;4.32;3.37;;;17.00;80.00;;;;;;10867225;32;20027;-69
2022/09/25 02:25:17;;;;;;;7.80;3.47;;;17.00;79.90;;;;;;10866861;32;20085;-69
2022/09/25 02:31:28;;;;;;;3.47;2.65;;;17.10;79.90;;;;;;10866710;32;20344;-69
2022/09/25 02:37:30;;;;;;;4.50;2.17;;;17.10;79.90;;;;;;10847224;32;20011;-69
2022/09/25 02:43:38;;;;;;;4.50;3.17;;;17.10;79.70;;;;;;10866813;32;20012;-69
2022/09/25 02:49:51;;;;;;;4.00;2.47;;;17.10;79.80;;;;;;10866425;32;20028;-69
2022/09/25 02:56:15;;;;;;;5.20;1.73;;;17.10;79.90;;;;;;10866197;32;20062;-70
2022/09/25 03:02:19;;;;;;;3.42;2.20;;;17.00;80.00;;;;;;10866166;32;20031;-69
2022/09/25 03:08:37;;;;;;;2.10;1.90;;;17.00;80.20;;;;;;10865408;32;20024;-69
2022/09/25 03:14:40;;;;;;;2.28;1.60;;;17.00;80.20;;;;;;10873268;32;20015;-69
2022/09/25 03:20:48;;;;;;;1.62;1.52;;;17.00;80.20;;;;;;10873086;32;20027;-69
2022/09/25 03:26:50;;;;;;;2.13;1.73;;;16.90;80.40;;;;;;10868711;32;20054;-69
2022/09/25 03:32:52;;;;;;;2.30;1.80;;;17.00;80.40;;;;;;10872743;32;20034;-69
2022/09/25 03:38:59;;;;;;;1.50;1.40;;;16.90;80.60;;;;;;10872387;32;20027;-69
2022/09/25 03:45:01;;;;;;;1.48;1.37;;;17.00;80.60;;;;;;10872145;32;20046;-70
2022/09/25 03:51:04;;;;;;;2.28;1.52;;;16.90;80.60;;;;;;10871908;32;20031;-69
2022/09/25 03:57:06;;;;;;;2.00;1.45;;;16.90;81.00;;;;;;10871950;32;20054;-69
2022/09/25 04:03:08;;;;;;;2.55;2.33;;;16.80;81.50;;;;;;10871652;32;20141;-69
2022/09/25 04:09:21;;;;;;;1.37;1.27;;;16.80;81.60;;;;;;10870137;32;20047;-69
2022/09/25 04:15:23;;;;;;;1.20;1.10;;;16.80;81.60;;;;;;10871053;32;20023;-69
2022/09/25 04:21:25;;;;;;;1.23;1.15;;;16.80;81.50;;;;;;10866385;32;20054;-69
2022/09/25 04:27:27;;;;;;;1.00;0.95;;;16.80;81.30;;;;;;10870614;32;20031;-69
2022/09/25 04:33:47;;;;;;;0.68;0.65;;;16.80;81.20;;;;;;10870670;32;20049;-69
2022/09/25 04:39:49;;;;;;;1.00;0.90;;;16.80;81.10;;;;;;10870402;32;20043;-69
2022/09/25 04:45:51;;;;;;;1.10;0.90;;;16.80;81.20;;;;;;10870207;32;20418;-69
2022/09/25 04:51:54;;;;;;;0.62;0.60;;;16.80;81.20;;;;;;10870331;32;20050;-69
2022/09/25 04:58:10;;;;;;;0.82;0.82;;;16.80;81.30;;;;;;10869438;32;20050;-69
2022/09/25 05:04:11;;;;;;;0.98;0.90;;;16.80;81.40;;;;;;10856033;32;20042;-69
2022/09/25 05:10:14;;;;;;;0.85;0.70;;;16.80;81.30;;;;;;10869184;32;20028;-69
2022/09/25 05:16:27;;;;;;;2.70;1.55;;;16.80;81.30;;;;;;10868943;32;20046;-70
2022/09/25 05:22:29;;;;;;;1.12;0.80;;;16.80;81.20;;;;;;10868661;32;20023;-70
2022/09/25 05:28:32;;;;;;;1.62;1.25;;;16.80;81.20;;;;;;10854862;32;20050;-69
2022/09/25 05:34:34;;;;;;;1.30;1.20;;;16.80;81.30;;;;;;10868322;32;20036;-70
2022/09/25 05:40:38;;;;;;;0.90;0.82;;;16.80;81.20;;;;;;10862416;32;20306;-69
2022/09/25 05:46:41;;;;;;;0.77;0.77;;;16.80;81.10;;;;;;10867720;32;20050;-70
2022/09/25 05:52:43;;;;;;;1.52;1.10;;;16.80;81.00;;;;;;10867559;32;20038;-70
2022/09/25 05:58:46;;;;;;;1.20;1.10;;;16.80;80.90;;;;;;10867373;32;20031;-70
2022/09/25 06:04:48;;;;;;;1.75;1.42;;;16.80;80.80;;;;;;10867483;32;20372;-69
2022/09/25 06:10:56;;;;;;;1.70;1.58;;;16.80;80.70;;;;;;10867075;32;20057;-69
2022/09/25 06:16:58;;;;;;;1.25;1.10;;;16.80;80.60;;;;;;10904460;27;20031;-69
2022/09/25 06:23:29;;;;;;;0.70;0.70;;;16.80;80.50;;;;;;10904106;32;20046;-69
2022/09/25 06:29:31;;;;;;;1.73;1.10;;;16.80;80.40;;;;;;10890918;32;20028;-69
2022/09/25 06:35:33;;;;;;;1.58;1.48;;;16.80;80.30;;;;;;10904211;32;20047;-69
2022/09/25 06:41:35;;;;;;;1.90;1.40;;;16.90;80.20;;;;;;10906524;32;20019;-69
2022/09/25 06:47:37;;;;;;;1.60;1.48;;;17.00;80.10;;;;;;10911501;32;20015;-70
2022/09/25 06:53:39;;;;;;;1.40;1.30;;;17.00;79.80;;;;;;10911184;32;20086;-69
2022/09/25 06:59:56;;;;;;;1.83;1.17;;;17.10;79.80;;;;;;10907047;32;20050;-70
2022/09/25 07:06:04;;;;;;;4.32;1.05;;;17.20;79.70;;;;;;10910925;32;20019;-69
2022/09/25 07:12:06;;;;;;;1.27;1.17;;;17.20;79.60;;;;;;10900126;32;20020;-70
2022/09/25 07:18:08;;;;;;;0.70;0.70;;;17.30;79.50;;;;;;10910214;32;20051;-70
2022/09/25 07:24:10;;;;;;;0.75;0.75;;;17.30;79.60;;;;;;10909874;32;20027;-70
2022/09/25 07:30:13;;;;;;;1.00;0.95;;;17.40;79.40;;;;;;10896569;32;20191;-70
2022/09/25 07:36:16;;;;;;;0.80;0.80;;;17.50;79.20;;;;;;10909885;32;20299;-69
2022/09/25 07:42:21;;;;;;;1.20;1.10;;;17.60;79.10;;;;;;10909630;32;20415;-70
2022/09/25 07:48:23;;;;;;;1.35;1.10;;;17.60;78.90;;;;;;10905272;32;20019;-70
2022/09/25 07:54:25;;;;;;;1.33;1.23;;;17.70;78.80;;;;;;10908330;32;20027;-69
2022/09/25 08:00:27;;;;;;;2.05;1.30;;;17.70;78.80;;;;;;10908980;32;20319;-69
2022/09/25 08:06:34;;;;;;;1.27;1.10;;;17.80;78.80;;;;;;10908044;32;20082;-70
2022/09/25 08:12:36;;;;;;;0.98;0.98;;;17.80;78.80;;;;;;10529507;32;12046699;-70
2022/09/25 08:19:01;;;;;;;0.93;0.93;;;17.90;78.70;;;;;;10799672;32;20032;-69
2022/09/25 08:25:03;;;;;;;1.30;1.20;;;17.90;78.70;;;;;;10793639;33;20051;-69
2022/09/25 08:31:05;;;;;;;2.05;1.37;;;18.00;78.60;;;;;;10792385;33;20055;-70
2022/09/25 08:37:09;;;;;;;2.15;1.75;;;18.10;78.50;;;;;;10793052;33;20059;-69
2022/09/25 08:43:17;;;;;;;2.30;1.55;;;18.20;78.20;;;;;;10865276;32;20028;-69
2022/09/25 08:49:23;;;;;;;1.67;1.45;;;18.30;78.10;;;;;;10869827;32;20064;-69
2022/09/25 08:56:18;;;;;;;3.40;1.75;;;18.30;77.80;;;;;;10869527;32;20027;-69
2022/09/25 09:02:23;;;;;;;2.58;1.90;;;18.30;77.70;;;;;;10869350;32;20062;-70
2022/09/25 09:08:28;;;;;;;2.67;2.25;;;18.30;77.70;;;;;;10867192;32;20053;-69
2022/09/25 09:14:39;;;;;;;3.78;2.92;;;18.30;77.40;;;;;;10866467;32;20020;-69
2022/09/25 09:21:05;;;;;;;2.97;2.50;;;18.40;77.10;;;;;;10880852;32;20061;-70
2022/09/25 09:34:27;;;;;;;3.28;2.15;;;18.50;76.30;;;;;;10887159;32;20431;-69
2022/09/25 09:40:50;;;;;;;6.53;3.95;;;18.70;76.10;;;;;;10896214;32;20059;-68
2022/09/25 09:47:45;;;;;;;3.35;1.87;;;18.80;75.40;;;;;;10874759;32;20050;-74
2022/09/25 09:53:57;;;;;;;2.55;2.17;;;18.90;74.80;;;;;;10919881;32;20023;-75
2022/09/25 10:00:13;;;;;;;3.83;2.97;;;19.00;74.70;;;;;;10902885;32;20085;-75
2022/09/25 10:06:16;;;;;;;3.83;1.62;;;19.20;74.70;;;;;;10890674;32;20019;-76
2022/09/25 10:12:27;;;;;;;4.93;2.37;;;19.30;74.50;;;;;;10904271;32;20289;-76
2022/09/25 10:18:56;;;;;;;2.35;1.85;;;19.30;74.70;;;;;;10903584;32;20461;-76
2022/09/25 10:25:04;;;;;;;3.50;2.42;;;19.50;73.80;;;;;;10899874;32;20023;-75
2022/09/25 10:31:11;;;;;;;2.97;2.03;;;19.50;73.70;;;;;;10902475;32;20422;-76
2022/09/25 10:37:35;;;;;;;2.17;1.92;;;19.60;73.60;;;;;;10903785;32;20355;-75
2022/09/25 10:44:19;;;;;;;2.33;1.83;;;19.80;73.50;;;;;;10903740;32;20020;-74
2022/09/25 10:50:25;;;;;;;3.20;2.10;;;19.90;73.10;;;;;;10899674;32;20395;-75
2022/09/25 10:56:37;;;;;;;2.80;2.00;;;20.00;73.00;;;;;;10895326;32;20339;-75
2022/09/25 11:02:45;;;;;;;3.70;2.45;;;20.00;72.70;;;;;;10899289;32;20070;-75
2022/09/25 11:08:59;;;;;;;2.85;2.08;;;20.10;72.70;;;;;;10898935;32;20438;-75
2022/09/25 11:15:08;;;;;;;2.00;1.62;;;20.00;72.70;;;;;;10899111;32;20057;-75
2022/09/25 11:21:32;;;;;;;3.12;2.45;;;19.80;72.90;;;;;;10896583;32;20395;-75
2022/09/25 11:27:44;;;;;;;2.53;2.28;;;19.90;73.00;;;;;;10905151;32;20054;-75
2022/09/25 11:33:56;;;;;;;6.68;3.53;;;19.80;73.20;;;;;;10909956;32;20286;-75
2022/09/25 11:47:26;;;;;;;3.17;2.33;;;19.80;74.00;;;;;;10905481;32;20383;-75
2022/09/25 11:53:33;;;;;;;2.83;2.12;;;19.70;74.30;;;;;;10904977;32;20020;-75
2022/09/25 12:00:13;;;;;;;2.42;1.85;;;19.60;74.50;;;;;;10905065;32;20506;-75
2022/09/25 12:06:47;;;;;;;4.80;3.20;;;19.40;74.70;;;;;;10828947;32;20443;-75
2022/09/25 12:12:57;;;;;;;3.17;2.28;;;19.30;75.00;;;;;;10829898;32;20024;-75
2022/09/25 12:19:03;;;;;;;2.45;2.08;;;19.30;75.20;;;;;;10830143;32;20059;-75
2022/09/25 12:25:15;;;;;;;3.92;2.72;;;19.30;75.30;;;;;;10829611;32;20036;-76
2022/09/25 12:31:45;;;;;;;2.62;2.28;;;19.40;75.20;;;;;;10829188;32;20031;-76
2022/09/25 12:38:18;;;;;;;3.05;2.28;;;19.60;75.40;;;;;;10828993;32;20054;-76
2022/09/25 12:44:51;;;;;;;2.72;1.75;;;19.60;75.50;;;;;;10720094;33;20060;-75
2022/09/25 12:50:57;;;;;;;4.60;3.10;;;19.80;75.10;;;;;;10718833;33;20424;-76
2022/09/25 12:57:17;;;;;;;2.35;1.75;;;19.90;74.80;;;;;;10718813;33;20025;-76
2022/09/25 13:03:45;;;;;;;2.28;1.65;;;20.00;74.40;;;;;;10718364;33;20393;-76
2022/09/25 13:09:48;;;;;;;4.60;1.67;;;20.10;74.40;;;;;;10714259;33;20032;-75
2022/09/25 13:15:56;;;;;;;2.75;1.75;;;20.20;74.10;;;;;;10718902;33;20060;-76
2022/09/25 13:22:00;;;;;;;3.00;1.63;;;20.20;73.90;;;;;;10886063;32;20019;-76
2022/09/25 13:28:08;;;;;;;3.12;2.00;;;20.20;73.90;;;;;;10901444;32;20028;-76
2022/09/25 13:34:13;;;;;;;2.70;1.92;;;20.20;73.70;;;;;;10904024;32;20351;-76
2022/09/25 13:47:24;;;;;;;2.60;2.03;;;20.20;73.50;;;;;;10867073;32;20348;-76
2022/09/25 13:53:47;;;;;;;2.35;1.45;;;20.30;73.30;;;;;;10899618;32;20020;-76
2022/09/25 14:00:04;;;;;;;1.55;1.45;;;20.20;73.20;;;;;;10901888;32;20389;-76
2022/09/25 14:06:16;;;;;;;1.35;1.25;;;20.30;73.10;;;;;;10887544;32;20011;-76
2022/09/25 14:12:41;;;;;;;1.25;1.10;;;20.20;73.10;;;;;;10908817;27;20054;-76
2022/09/25 14:18:46;;;;;;;1.37;1.27;;;20.20;73.20;;;;;;10904345;32;20027;-76
2022/09/25 14:24:48;;;;;;;2.40;1.95;;;20.20;73.10;;;;;;10875818;32;20032;-76
2022/09/25 14:31:25;;;;;;;0.90;0.90;;;20.20;73.20;;;;;;10887436;32;20433;-70
2022/09/25 14:37:53;;;;;;;1.15;1.05;;;20.20;73.10;;;;;;10901914;32;20035;-70
2022/09/25 14:44:24;;;;;;;0.75;0.75;;;20.20;73.10;;;;;;10918343;32;20069;-71
2022/09/25 14:50:42;;;;;;;1.37;1.00;;;20.20;73.00;;;;;;10927385;32;20023;-70
2022/09/25 14:56:49;;;;;;;1.30;1.20;;;20.20;72.90;;;;;;10941049;32;20429;-71
2022/09/25 15:02:54;;;;;;;1.48;1.30;;;20.20;73.00;;;;;;10942140;32;20045;-71
2022/09/25 15:08:56;;;;;;;1.02;0.98;;;20.20;72.90;;;;;;10940284;32;20355;-71
2022/09/25 15:15:12;;;;;;;1.50;1.00;;;20.20;73.00;;;;;;10910230;32;20046;-71
2022/09/25 15:21:30;;;;;;;1.77;1.30;;;20.30;72.90;;;;;;10892881;32;20038;-70
2022/09/25 15:27:33;;;;;;;0.50;0.50;;;20.40;72.80;;;;;;10918485;32;20026;-71
2022/09/25 15:33:37;;;;;;;0.93;0.90;;;20.40;72.60;;;;;;10947757;32;20058;-71
2022/09/25 15:39:41;;;;;;;0.93;0.70;;;20.50;72.40;;;;;;10896239;32;20126;-71
2022/09/25 15:46:22;;;;;;;1.77;1.27;;;20.50;72.50;;;;;;10908239;32;20339;-70
2022/09/25 15:52:31;;;;;;;1.05;1.00;;;20.70;72.20;;;;;;10903371;32;20077;-71
2022/09/25 15:58:53;;;;;;;2.05;1.33;;;20.70;72.20;;;;;;10908829;32;20058;-71
2022/09/25 16:04:56;;;;;;;1.12;0.90;;;20.80;72.00;;;;;;10895473;32;20074;-70
2022/09/25 16:11:23;;;;;;;1.37;1.15;;;20.90;71.60;;;;;;10908529;32;20054;-71
2022/09/25 16:17:38;;;;;;;1.73;1.27;;;21.00;71.30;;;;;;10894548;32;20045;-71
2022/09/25 16:24:06;;;;;;;1.48;0.90;;;20.90;71.60;;;;;;10907744;32;20059;-70
2022/09/25 16:30:19;;;;;;;1.80;1.25;;;20.70;72.00;;;;;;10891711;32;20027;-71
2022/09/25 16:36:22;;;;;;;1.75;1.65;;;20.50;72.40;;;;;;10903746;32;20074;-71
2022/09/25 16:42:38;;;;;;;1.55;1.20;;;20.30;72.60;;;;;;10903568;32;20351;-71
2022/09/25 16:49:13;;;;;;;1.40;1.27;;;20.30;72.70;;;;;;10907260;32;20019;-71
2022/09/25 16:55:27;;;;;;;1.90;1.58;;;20.20;72.80;;;;;;10829588;32;20406;-71
2022/09/25 17:01:30;;;;;;;1.67;1.40;;;20.00;73.00;;;;;;10816699;32;20046;-71
2022/09/25 17:07:32;;;;;;;2.25;1.55;;;19.90;73.20;;;;;;10828469;32;20031;-70
2022/09/25 17:13:34;;;;;;;1.90;1.30;;;19.80;73.40;;;;;;10815517;32;20047;-71
2022/09/25 17:19:36;;;;;;;1.98;1.37;;;19.80;73.60;;;;;;10828803;32;20028;-71
2022/09/25 17:25:46;;;;;;;1.05;1.00;;;19.70;73.70;;;;;;10889784;32;20027;-71
2022/09/25 17:31:49;;;;;;;2.92;1.48;;;19.70;73.70;;;;;;10888205;32;20031;-71
2022/09/25 17:37:53;;;;;;;2.03;1.60;;;19.70;73.80;;;;;;10905308;32;20067;-70
2022/09/25 17:43:55;;;;;;;3.72;1.55;;;19.50;73.80;;;;;;10904949;32;20070;-71
2022/09/25 17:49:58;;;;;;;5.40;1.48;;;19.50;74.00;;;;;;10904274;32;20347;-70
2022/09/25 17:56:01;;;;;;;2.53;1.60;;;19.50;74.00;;;;;;10905180;32;20031;-70
2022/09/25 18:02:56;;;;;;;2.12;1.70;;;19.50;74.10;;;;;;10903421;32;20042;-70
2022/09/25 18:09:01;;;;;;;1.90;1.45;;;19.40;74.10;;;;;;10902827;32;20028;-70
2022/09/25 18:15:04;;;;;;;2.28;1.83;;;19.30;74.30;;;;;;10904528;32;20015;-70
2022/09/25 18:27:31;;;;;;;2.58;1.65;;;19.30;74.40;;;;;;10904862;32;20050;-70
2022/09/25 18:33:37;;;;;;;3.12;1.85;;;19.30;74.50;;;;;;10903280;32;20324;-70
2022/09/25 18:39:39;;;;;;;2.50;1.83;;;19.30;74.60;;;;;;10913063;32;20023;-70
2022/09/25 18:45:54;;;;;;;3.20;2.15;;;19.20;74.70;;;;;;10916278;32;20077;-70
2022/09/25 18:51:56;;;;;;;2.97;2.10;;;19.30;74.80;;;;;;10912104;32;20028;-70
2022/09/25 18:58:00;;;;;;;2.25;1.92;;;19.20;75.00;;;;;;10916155;32;20117;-70
2022/09/25 19:04:02;;;;;;;3.72;2.42;;;19.20;75.00;;;;;;10902614;32;20019;-70
2022/09/25 19:10:08;;;;;;;4.95;3.00;;;19.20;75.00;;;;;;10915874;32;20331;-71
2022/09/25 19:16:10;;;;;;;3.37;2.60;;;19.10;75.10;;;;;;10915957;32;20011;-70
2022/09/25 19:22:17;;;;;;;4.37;3.30;;;19.00;75.10;;;;;;10913546;32;20019;-76
2022/09/25 19:28:22;;;;;;;2.45;2.08;;;19.00;75.30;;;;;;10914711;32;20035;-76
2022/09/25 19:34:25;;;;;;;4.57;2.90;;;18.90;75.30;;;;;;10902181;32;20413;-76
2022/09/25 19:40:40;;;;;;;4.75;3.05;;;18.90;75.50;;;;;;10915621;32;20433;-77
2022/09/25 19:46:43;;;;;;;6.82;4.40;;;18.90;75.40;;;;;;10915532;32;20023;-76
2022/09/25 19:52:46;;;;;;;6.18;4.35;;;18.80;75.50;;;;;;10903676;32;20027;-76
2022/09/25 19:58:49;;;;;;;4.50;3.15;;;18.80;75.60;;;;;;10905585;32;20418;-76
2022/09/25 20:04:51;;;;;;;5.22;3.40;;;18.70;75.60;;;;;;10908965;32;20063;-76
2022/09/25 20:10:54;;;;;;;7.90;3.40;;;18.70;75.70;;;;;;10906993;32;20287;-76
2022/09/25 20:16:56;;;;;;;9.23;5.15;;;18.60;75.80;;;;;;10908379;32;20046;-76
2022/09/25 20:23:22;;;;;;;5.97;3.78;;;18.60;75.90;;;;;;10908310;32;20019;-76
2022/09/25 20:29:24;;;;;;;6.15;4.57;;;18.60;75.90;;;;;;10894892;32;20019;-76
2022/09/25 20:35:26;;;;;;;5.85;3.40;;;18.60;75.90;;;;;;10894513;32;20023;-76
2022/09/25 20:41:28;;;;;;;7.12;5.55;;;18.60;76.00;;;;;;10907834;32;20015;-76
2022/09/25 20:47:32;;;;;;;7.87;5.20;;;18.70;76.10;;;;;;10907724;32;20320;-76
2022/09/25 20:53:36;;;;;;;7.65;5.32;;;18.60;76.10;;;;;;10906105;32;20023;-76
2022/09/25 20:59:38;;;;;;;7.35;5.30;;;18.50;76.10;;;;;;10906963;32;20016;-76
2022/09/25 21:05:42;;;;;;;7.43;5.47;;;18.50;76.00;;;;;;10905082;32;20019;-75
2022/09/25 21:11:44;;;;;;;5.43;4.28;;;18.50;76.00;;;;;;10906439;32;20054;-78
2022/09/25 21:17:46;;;;;;;7.28;5.28;;;18.50;76.10;;;;;;10906396;32;20019;-76
2022/09/25 21:23:51;;;;;;;6.87;4.62;;;18.40;76.10;;;;;;10902797;32;20320;-76
2022/09/25 21:29:53;;;;;;;9.65;7.57;;;18.40;76.10;;;;;;10905893;32;20058;-76
2022/09/25 21:35:55;;;;;;;7.68;5.95;;;18.30;76.20;;;;;;10878861;32;20054;-77
2022/09/25 21:41:57;;;;;;;8.40;7.05;;;18.30;76.30;;;;;;10891459;32;20031;-76
2022/09/25 21:48:00;;;;;;;8.18;6.37;;;18.30;76.40;;;;;;10903931;32;20065;-76
2022/09/25 21:54:16;;;;;;;10.25;6.87;;;18.30;76.40;;;;;;10905116;32;20045;-76
2022/09/25 22:00:19;;;;;;;8.88;6.18;;;18.30;76.30;;;;;;10904869;32;20011;-76
2022/09/25 22:06:25;;;;;;;7.93;6.10;;;18.20;76.30;;;;;;10891489;32;20073;-76
2022/09/25 22:12:27;;;;;;;8.05;6.28;;;18.20;76.40;;;;;;10905282;27;20076;-76
2022/09/25 22:18:29;;;;;;;8.30;6.57;;;18.20;76.50;;;;;;10902669;32;20027;-76
2022/09/25 22:24:31;;;;;;;12.20;8.15;;;18.20;76.50;;;;;;10904451;32;20015;-75
2022/09/25 22:30:34;;;;;;;13.30;8.50;;;18.20;76.50;;;;;;10904224;32;20031;-75
2022/09/25 22:36:36;;;;;;;8.93;5.78;;;18.20;76.60;;;;;;10904033;32;20031;-76
2022/09/25 22:42:39;;;;;;;9.30;7.15;;;18.10;76.60;;;;;;10903759;32;20031;-76
2022/09/25 22:48:41;;;;;;;7.72;5.30;;;18.10;76.80;;;;;;10903847;32;20066;-76
2022/09/25 22:54:43;;;;;;;6.72;4.93;;;18.00;76.80;;;;;;10903841;32;20348;-76
2022/09/25 23:00:50;;;;;;;9.85;6.82;;;18.00;76.90;;;;;;10903757;32;20024;-76
2022/09/25 23:06:52;;;;;;;10.65;8.23;;;18.00;76.90;;;;;;10903416;32;20078;-76
2022/09/25 23:12:55;;;;;;;6.28;4.45;;;18.00;77.00;;;;;;10903384;32;20076;-75
2022/09/25 23:18:59;;;;;;;10.40;6.28;;;17.90;77.00;;;;;;10888290;32;20032;-75
2022/09/25 23:25:01;;;;;;;11.32;8.85;;;17.90;77.10;;;;;;10904610;32;20065;-75
2022/09/25 23:31:06;;;;;;;7.95;6.70;;;17.80;77.20;;;;;;10881659;32;20058;-75
2022/09/25 23:37:08;;;;;;;10.23;8.07;;;17.80;77.20;;;;;;10906979;32;20019;-76
2022/09/25 23:43:10;;;;;;;10.20;8.60;;;17.80;77.40;;;;;;10910020;32;20391;-75
2022/09/25 23:49:13;;;;;;;10.32;8.00;;;17.80;77.40;;;;;;10909765;32;20063;-75
2022/09/25 23:55:16;;;;;;;11.55;8.10;;;17.80;77.40;;;;;;10907954;32;20031;-76
